sensor_id;sensor_type;location;lat;lon;timestamp;P1;durP1;ratioP1;P2;durP2;ratioP2
31206;SDS011;17834;52.992;8.856;2024-02-15T00:00:02;17.30;;;7.97;;
31206;SDS011;17834;52.992;8.856;2024-02-15T00:02:28;17.75;;;8.32;;
31206;SDS011;17834;52.992;8.856;2024-02-15T00:04:54;18.65;;;8.02;;
31206;SDS011;17834;52.992;8.856;2024-02-15T00:07:20;17.50;;;8.75;;
31206;SDS011;17834;52.992;8.856;2024-02-15T00:09:48;17.35;;;8.13;;
31206;SDS011;17834;52.992;8.856;2024-02-15T00:12:13;19.10;;;8.48;;
31206;SDS011;17834;52.992;8.856;2024-02-15T00:14:39;18.73;;;8.98;;
31206;SDS011;17834;52.992;8.856;2024-02-15T00:17:04;20.83;;;9.23;;
31206;SDS011;17834;52.992;8.856;2024-02-15T00:19:30;18.73;;;7.80;;
31206;SDS011;17834;52.992;8.856;2024-02-15T00:21:56;18.48;;;8.43;;
31206;SDS011;17834;52.992;8.856;2024-02-15T00:24:22;16.17;;;7.57;;
31206;SDS011;17834;52.992;8.856;2024-02-15T00:26:48;20.05;;;8.45;;
31206;SDS011;17834;52.992;8.856;2024-02-15T00:29:14;16.95;;;7.40;;
31206;SDS011;17834;52.992;8.856;2024-02-15T00:31:40;16.38;;;7.47;;
31206;SDS011;17834;52.992;8.856;2024-02-15T00:34:05;18.55;;;8.32;;
31206;SDS011;17834;52.992;8.856;2024-02-15T00:36:31;15.93;;;7.53;;
31206;SDS011;17834;52.992;8.856;2024-02-15T00:39:00;19.73;;;9.07;;
31206;SDS011;17834;52.992;8.856;2024-02-15T00:41:26;19.70;;;9.18;;
31206;SDS011;17834;52.992;8.856;2024-02-15T00:43:52;19.17;;;8.90;;
31206;SDS011;17834;52.992;8.856;2024-02-15T00:46:18;17.77;;;7.68;;
31206;SDS011;17834;52.992;8.856;2024-02-15T00:48:43;17.05;;;7.70;;
31206;SDS011;17834;52.992;8.856;2024-02-15T00:51:09;19.35;;;8.65;;
31206;SDS011;17834;52.992;8.856;2024-02-15T00:53:34;15.88;;;7.82;;
31206;SDS011;17834;52.992;8.856;2024-02-15T00:56:00;17.70;;;7.97;;
31206;SDS011;17834;52.992;8.856;2024-02-15T00:58:25;23.42;;;9.77;;
31206;SDS011;17834;52.992;8.856;2024-02-15T01:00:52;22.52;;;9.65;;
31206;SDS011;17834;52.992;8.856;2024-02-15T01:03:18;21.33;;;10.60;;
31206;SDS011;17834;52.992;8.856;2024-02-15T01:05:44;18.30;;;7.88;;
31206;SDS011;17834;52.992;8.856;2024-02-15T01:08:10;20.98;;;9.48;;
31206;SDS011;17834;52.992;8.856;2024-02-15T01:10:36;16.65;;;7.68;;
31206;SDS011;17834;52.992;8.856;2024-02-15T01:13:02;19.23;;;8.40;;
31206;SDS011;17834;52.992;8.856;2024-02-15T01:15:27;15.93;;;8.25;;
31206;SDS011;17834;52.992;8.856;2024-02-15T01:17:53;18.95;;;8.35;;
31206;SDS011;17834;52.992;8.856;2024-02-15T01:20:18;20.77;;;9.07;;
31206;SDS011;17834;52.992;8.856;2024-02-15T01:22:46;19.83;;;8.70;;
31206;SDS011;17834;52.992;8.856;2024-02-15T01:25:11;16.75;;;7.72;;
31206;SDS011;17834;52.992;8.856;2024-02-15T01:27:37;17.80;;;8.27;;
31206;SDS011;17834;52.992;8.856;2024-02-15T01:30:04;16.80;;;7.32;;
31206;SDS011;17834;52.992;8.856;2024-02-15T01:32:30;18.80;;;8.30;;
31206;SDS011;17834;52.992;8.856;2024-02-15T01:34:56;19.75;;;9.00;;
31206;SDS011;17834;52.992;8.856;2024-02-15T01:37:22;21.55;;;8.75;;
31206;SDS011;17834;52.992;8.856;2024-02-15T01:39:49;18.52;;;8.23;;
31206;SDS011;17834;52.992;8.856;2024-02-15T01:42:15;19.23;;;8.43;;
31206;SDS011;17834;52.992;8.856;2024-02-15T01:44:40;18.50;;;8.00;;
31206;SDS011;17834;52.992;8.856;2024-02-15T01:47:08;16.02;;;7.75;;
31206;SDS011;17834;52.992;8.856;2024-02-15T01:49:35;15.90;;;8.20;;
31206;SDS011;17834;52.992;8.856;2024-02-15T01:52:01;15.95;;;7.57;;
31206;SDS011;17834;52.992;8.856;2024-02-15T01:54:30;22.38;;;8.07;;
31206;SDS011;17834;52.992;8.856;2024-02-15T01:56:57;17.67;;;8.65;;
31206;SDS011;17834;52.992;8.856;2024-02-15T01:59:22;17.77;;;7.97;;
31206;SDS011;17834;52.992;8.856;2024-02-15T02:01:50;15.98;;;7.32;;
31206;SDS011;17834;52.992;8.856;2024-02-15T02:04:15;16.23;;;7.18;;
31206;SDS011;17834;52.992;8.856;2024-02-15T02:06:41;16.23;;;7.60;;
31206;SDS011;17834;52.992;8.856;2024-02-15T02:09:10;14.73;;;6.78;;
31206;SDS011;17834;52.992;8.856;2024-02-15T02:11:40;20.45;;;8.68;;
31206;SDS011;17834;52.992;8.856;2024-02-15T02:14:09;17.92;;;8.27;;
31206;SDS011;17834;52.992;8.856;2024-02-15T02:16:36;14.90;;;7.35;;
31206;SDS011;17834;52.992;8.856;2024-02-15T02:19:03;16.00;;;8.02;;
31206;SDS011;17834;52.992;8.856;2024-02-15T02:21:33;15.90;;;8.07;;
31206;SDS011;17834;52.992;8.856;2024-02-15T02:24:00;14.50;;;6.60;;
31206;SDS011;17834;52.992;8.856;2024-02-15T02:26:31;15.07;;;7.55;;
31206;SDS011;17834;52.992;8.856;2024-02-15T02:28:57;16.65;;;8.02;;
31206;SDS011;17834;52.992;8.856;2024-02-15T02:31:24;17.90;;;7.55;;
31206;SDS011;17834;52.992;8.856;2024-02-15T02:33:50;16.90;;;8.45;;
31206;SDS011;17834;52.992;8.856;2024-02-15T02:36:20;21.50;;;8.68;;
31206;SDS011;17834;52.992;8.856;2024-02-15T02:38:45;21.95;;;8.15;;
31206;SDS011;17834;52.992;8.856;2024-02-15T02:41:14;19.95;;;9.10;;
31206;SDS011;17834;52.992;8.856;2024-02-15T02:43:40;17.58;;;7.45;;
31206;SDS011;17834;52.992;8.856;2024-02-15T02:46:09;21.00;;;9.38;;
31206;SDS011;17834;52.992;8.856;2024-02-15T02:48:36;17.02;;;7.70;;
31206;SDS011;17834;52.992;8.856;2024-02-15T02:51:02;18.38;;;8.65;;
31206;SDS011;17834;52.992;8.856;2024-02-15T02:53:28;18.15;;;8.27;;
31206;SDS011;17834;52.992;8.856;2024-02-15T02:55:55;20.08;;;8.52;;
31206;SDS011;17834;52.992;8.856;2024-02-15T02:58:22;17.67;;;7.90;;
31206;SDS011;17834;52.992;8.856;2024-02-15T03:00:48;20.02;;;8.07;;
31206;SDS011;17834;52.992;8.856;2024-02-15T03:03:14;20.60;;;8.88;;
31206;SDS011;17834;52.992;8.856;2024-02-15T03:05:40;22.98;;;10.40;;
31206;SDS011;17834;52.992;8.856;2024-02-15T03:08:08;22.33;;;9.30;;
31206;SDS011;17834;52.992;8.856;2024-02-15T03:10:34;20.98;;;9.32;;
31206;SDS011;17834;52.992;8.856;2024-02-15T03:13:00;20.85;;;8.77;;
31206;SDS011;17834;52.992;8.856;2024-02-15T03:15:27;20.73;;;9.35;;
31206;SDS011;17834;52.992;8.856;2024-02-15T03:17:53;22.60;;;9.63;;
31206;SDS011;17834;52.992;8.856;2024-02-15T03:20:19;18.13;;;7.82;;
31206;SDS011;17834;52.992;8.856;2024-02-15T03:22:57;20.58;;;9.13;;
31206;SDS011;17834;52.992;8.856;2024-02-15T03:25:23;18.15;;;8.05;;
31206;SDS011;17834;52.992;8.856;2024-02-15T03:27:50;19.67;;;8.90;;
31206;SDS011;17834;52.992;8.856;2024-02-15T03:30:20;18.13;;;8.98;;
31206;SDS011;17834;52.992;8.856;2024-02-15T03:32:47;18.98;;;9.10;;
31206;SDS011;17834;52.992;8.856;2024-02-15T03:35:19;22.65;;;9.80;;
31206;SDS011;17834;52.992;8.856;2024-02-15T03:37:47;19.83;;;9.57;;
31206;SDS011;17834;52.992;8.856;2024-02-15T03:40:15;23.98;;;9.73;;
31206;SDS011;17834;52.992;8.856;2024-02-15T03:42:41;25.33;;;10.38;;
31206;SDS011;17834;52.992;8.856;2024-02-15T03:45:07;24.90;;;9.98;;
31206;SDS011;17834;52.992;8.856;2024-02-15T03:47:34;19.88;;;9.13;;
31206;SDS011;17834;52.992;8.856;2024-02-15T03:50:06;20.70;;;9.75;;
31206;SDS011;17834;52.992;8.856;2024-02-15T03:52:36;24.38;;;10.45;;
31206;SDS011;17834;52.992;8.856;2024-02-15T03:55:02;20.90;;;9.07;;
31206;SDS011;17834;52.992;8.856;2024-02-15T03:57:29;21.63;;;9.38;;
31206;SDS011;17834;52.992;8.856;2024-02-15T03:59:55;22.05;;;10.07;;
31206;SDS011;17834;52.992;8.856;2024-02-15T04:02:24;24.42;;;8.70;;
31206;SDS011;17834;52.992;8.856;2024-02-15T04:04:55;25.95;;;9.90;;
31206;SDS011;17834;52.992;8.856;2024-02-15T04:07:22;22.38;;;9.98;;
31206;SDS011;17834;52.992;8.856;2024-02-15T04:09:51;22.42;;;9.68;;
31206;SDS011;17834;52.992;8.856;2024-02-15T04:12:17;22.67;;;9.60;;
31206;SDS011;17834;52.992;8.856;2024-02-15T04:14:43;25.30;;;9.48;;
31206;SDS011;17834;52.992;8.856;2024-02-15T04:17:13;22.75;;;9.98;;
31206;SDS011;17834;52.992;8.856;2024-02-15T04:19:41;24.52;;;10.45;;
31206;SDS011;17834;52.992;8.856;2024-02-15T04:22:08;20.50;;;9.40;;
31206;SDS011;17834;52.992;8.856;2024-02-15T04:24:35;18.05;;;8.35;;
31206;SDS011;17834;52.992;8.856;2024-02-15T04:27:04;21.13;;;8.90;;
31206;SDS011;17834;52.992;8.856;2024-02-15T04:29:32;25.42;;;10.20;;
31206;SDS011;17834;52.992;8.856;2024-02-15T04:31:58;20.83;;;9.82;;
31206;SDS011;17834;52.992;8.856;2024-02-15T04:34:24;22.92;;;9.80;;
31206;SDS011;17834;52.992;8.856;2024-02-15T04:36:51;18.40;;;8.88;;
31206;SDS011;17834;52.992;8.856;2024-02-15T04:39:20;22.80;;;8.70;;
31206;SDS011;17834;52.992;8.856;2024-02-15T04:41:51;18.92;;;8.40;;
31206;SDS011;17834;52.992;8.856;2024-02-15T04:44:17;26.63;;;10.77;;
31206;SDS011;17834;52.992;8.856;2024-02-15T04:46:45;20.23;;;9.60;;
31206;SDS011;17834;52.992;8.856;2024-02-15T04:49:11;20.30;;;9.00;;
31206;SDS011;17834;52.992;8.856;2024-02-15T04:51:38;21.88;;;9.55;;
31206;SDS011;17834;52.992;8.856;2024-02-15T04:54:05;22.23;;;9.68;;
31206;SDS011;17834;52.992;8.856;2024-02-15T04:56:32;21.00;;;9.25;;
31206;SDS011;17834;52.992;8.856;2024-02-15T04:58:58;23.98;;;9.55;;
31206;SDS011;17834;52.992;8.856;2024-02-15T05:01:24;18.65;;;8.68;;
31206;SDS011;17834;52.992;8.856;2024-02-15T05:03:50;19.17;;;7.22;;
31206;SDS011;17834;52.992;8.856;2024-02-15T05:06:16;19.60;;;8.25;;
31206;SDS011;17834;52.992;8.856;2024-02-15T05:08:42;20.67;;;8.20;;
31206;SDS011;17834;52.992;8.856;2024-02-15T05:11:11;21.65;;;8.63;;
31206;SDS011;17834;52.992;8.856;2024-02-15T05:13:45;21.73;;;8.85;;
31206;SDS011;17834;52.992;8.856;2024-02-15T05:16:12;21.83;;;8.90;;
31206;SDS011;17834;52.992;8.856;2024-02-15T05:18:38;19.77;;;8.15;;
31206;SDS011;17834;52.992;8.856;2024-02-15T05:21:07;21.08;;;8.93;;
31206;SDS011;17834;52.992;8.856;2024-02-15T05:23:34;19.80;;;8.35;;
31206;SDS011;17834;52.992;8.856;2024-02-15T05:26:00;18.92;;;8.65;;
31206;SDS011;17834;52.992;8.856;2024-02-15T05:28:28;18.73;;;9.02;;
31206;SDS011;17834;52.992;8.856;2024-02-15T05:31:10;18.35;;;7.93;;
31206;SDS011;17834;52.992;8.856;2024-02-15T05:33:37;20.42;;;8.00;;
31206;SDS011;17834;52.992;8.856;2024-02-15T05:36:08;19.25;;;8.60;;
31206;SDS011;17834;52.992;8.856;2024-02-15T05:38:35;19.25;;;8.73;;
31206;SDS011;17834;52.992;8.856;2024-02-15T05:41:01;17.92;;;7.88;;
31206;SDS011;17834;52.992;8.856;2024-02-15T05:43:28;16.73;;;7.93;;
31206;SDS011;17834;52.992;8.856;2024-02-15T05:45:54;19.10;;;8.80;;
31206;SDS011;17834;52.992;8.856;2024-02-15T05:48:24;25.05;;;9.52;;
31206;SDS011;17834;52.992;8.856;2024-02-15T05:50:50;17.13;;;7.35;;
31206;SDS011;17834;52.992;8.856;2024-02-15T05:53:16;20.80;;;8.93;;
31206;SDS011;17834;52.992;8.856;2024-02-15T05:55:42;20.88;;;8.45;;
31206;SDS011;17834;52.992;8.856;2024-02-15T05:58:09;18.55;;;8.23;;
31206;SDS011;17834;52.992;8.856;2024-02-15T06:00:36;16.65;;;7.57;;
31206;SDS011;17834;52.992;8.856;2024-02-15T06:03:04;14.32;;;6.72;;
31206;SDS011;17834;52.992;8.856;2024-02-15T06:05:31;15.50;;;7.35;;
31206;SDS011;17834;52.992;8.856;2024-02-15T06:07:57;18.50;;;6.82;;
31206;SDS011;17834;52.992;8.856;2024-02-15T06:10:24;14.52;;;6.65;;
31206;SDS011;17834;52.992;8.856;2024-02-15T06:12:50;13.15;;;6.05;;
31206;SDS011;17834;52.992;8.856;2024-02-15T06:15:16;16.13;;;7.22;;
31206;SDS011;17834;52.992;8.856;2024-02-15T06:17:43;14.05;;;6.65;;
31206;SDS011;17834;52.992;8.856;2024-02-15T06:20:10;17.27;;;7.07;;
31206;SDS011;17834;52.992;8.856;2024-02-15T06:22:46;12.88;;;5.45;;
31206;SDS011;17834;52.992;8.856;2024-02-15T06:25:12;12.55;;;6.03;;
31206;SDS011;17834;52.992;8.856;2024-02-15T06:27:40;15.63;;;6.65;;
31206;SDS011;17834;52.992;8.856;2024-02-15T06:30:12;16.02;;;6.82;;
31206;SDS011;17834;52.992;8.856;2024-02-15T06:32:57;16.35;;;6.97;;
31206;SDS011;17834;52.992;8.856;2024-02-15T06:35:42;16.48;;;6.95;;
31206;SDS011;17834;52.992;8.856;2024-02-15T06:38:26;15.20;;;6.88;;
31206;SDS011;17834;52.992;8.856;2024-02-15T06:41:11;17.83;;;8.13;;
31206;SDS011;17834;52.992;8.856;2024-02-15T06:43:37;18.75;;;6.90;;
31206;SDS011;17834;52.992;8.856;2024-02-15T06:46:08;15.85;;;6.70;;
31206;SDS011;17834;52.992;8.856;2024-02-15T06:48:35;14.98;;;7.43;;
31206;SDS011;17834;52.992;8.856;2024-02-15T06:51:01;16.77;;;7.78;;
31206;SDS011;17834;52.992;8.856;2024-02-15T06:53:28;15.98;;;7.28;;
31206;SDS011;17834;52.992;8.856;2024-02-15T06:55:54;16.90;;;7.57;;
31206;SDS011;17834;52.992;8.856;2024-02-15T06:58:20;17.25;;;7.97;;
31206;SDS011;17834;52.992;8.856;2024-02-15T07:00:47;17.48;;;8.60;;
31206;SDS011;17834;52.992;8.856;2024-02-15T07:03:15;17.55;;;8.38;;
31206;SDS011;17834;52.992;8.856;2024-02-15T07:05:41;19.67;;;9.32;;
31206;SDS011;17834;52.992;8.856;2024-02-15T07:08:07;19.02;;;8.60;;
31206;SDS011;17834;52.992;8.856;2024-02-15T07:10:37;18.08;;;8.05;;
31206;SDS011;17834;52.992;8.856;2024-02-15T07:13:03;22.50;;;9.23;;
31206;SDS011;17834;52.992;8.856;2024-02-15T07:15:30;17.27;;;8.27;;
31206;SDS011;17834;52.992;8.856;2024-02-15T07:17:58;19.98;;;8.18;;
31206;SDS011;17834;52.992;8.856;2024-02-15T07:20:24;20.38;;;8.90;;
31206;SDS011;17834;52.992;8.856;2024-02-15T07:22:50;18.10;;;8.93;;
31206;SDS011;17834;52.992;8.856;2024-02-15T07:25:16;20.40;;;8.57;;
31206;SDS011;17834;52.992;8.856;2024-02-15T07:27:43;19.77;;;9.32;;
31206;SDS011;17834;52.992;8.856;2024-02-15T07:30:09;20.58;;;9.38;;
31206;SDS011;17834;52.992;8.856;2024-02-15T07:32:35;23.52;;;10.02;;
31206;SDS011;17834;52.992;8.856;2024-02-15T07:35:01;19.17;;;9.55;;
31206;SDS011;17834;52.992;8.856;2024-02-15T07:37:28;21.83;;;9.77;;
31206;SDS011;17834;52.992;8.856;2024-02-15T07:39:54;18.95;;;8.95;;
31206;SDS011;17834;52.992;8.856;2024-02-15T07:42:20;20.15;;;9.70;;
31206;SDS011;17834;52.992;8.856;2024-02-15T07:44:50;20.98;;;10.05;;
31206;SDS011;17834;52.992;8.856;2024-02-15T07:47:17;20.50;;;9.70;;
31206;SDS011;17834;52.992;8.856;2024-02-15T07:49:45;24.45;;;10.15;;
31206;SDS011;17834;52.992;8.856;2024-02-15T07:52:12;21.38;;;9.13;;
31206;SDS011;17834;52.992;8.856;2024-02-15T07:54:38;22.38;;;9.60;;
31206;SDS011;17834;52.992;8.856;2024-02-15T07:57:04;21.33;;;9.48;;
31206;SDS011;17834;52.992;8.856;2024-02-15T07:59:30;24.23;;;11.27;;
31206;SDS011;17834;52.992;8.856;2024-02-15T08:01:56;23.27;;;10.27;;
31206;SDS011;17834;52.992;8.856;2024-02-15T08:04:23;23.83;;;11.23;;
31206;SDS011;17834;52.992;8.856;2024-02-15T08:06:49;23.50;;;11.45;;
31206;SDS011;17834;52.992;8.856;2024-02-15T08:09:19;22.65;;;10.88;;
31206;SDS011;17834;52.992;8.856;2024-02-15T08:11:47;21.20;;;9.98;;
31206;SDS011;17834;52.992;8.856;2024-02-15T08:14:13;21.52;;;10.55;;
31206;SDS011;17834;52.992;8.856;2024-02-15T08:16:39;28.30;;;11.65;;
31206;SDS011;17834;52.992;8.856;2024-02-15T08:19:08;22.23;;;11.18;;
31206;SDS011;17834;52.992;8.856;2024-02-15T08:21:37;26.02;;;12.40;;
31206;SDS011;17834;52.992;8.856;2024-02-15T08:24:04;26.58;;;12.02;;
31206;SDS011;17834;52.992;8.856;2024-02-15T08:26:37;27.83;;;12.23;;
31206;SDS011;17834;52.992;8.856;2024-02-15T08:29:04;28.85;;;12.18;;
31206;SDS011;17834;52.992;8.856;2024-02-15T08:31:34;27.92;;;12.43;;
31206;SDS011;17834;52.992;8.856;2024-02-15T08:34:03;29.15;;;12.98;;
31206;SDS011;17834;52.992;8.856;2024-02-15T08:36:35;29.65;;;13.45;;
31206;SDS011;17834;52.992;8.856;2024-02-15T08:39:01;25.40;;;11.98;;
31206;SDS011;17834;52.992;8.856;2024-02-15T08:41:28;30.90;;;13.70;;
31206;SDS011;17834;52.992;8.856;2024-02-15T08:43:54;33.42;;;13.30;;
31206;SDS011;17834;52.992;8.856;2024-02-15T08:46:25;32.67;;;13.68;;
31206;SDS011;17834;52.992;8.856;2024-02-15T08:48:52;33.67;;;14.43;;
31206;SDS011;17834;52.992;8.856;2024-02-15T08:51:18;30.88;;;12.88;;
31206;SDS011;17834;52.992;8.856;2024-02-15T08:53:45;31.90;;;14.48;;
31206;SDS011;17834;52.992;8.856;2024-02-15T08:56:11;30.27;;;13.23;;
31206;SDS011;17834;52.992;8.856;2024-02-15T08:58:37;28.80;;;13.02;;
31206;SDS011;17834;52.992;8.856;2024-02-15T09:01:05;28.60;;;15.05;;
31206;SDS011;17834;52.992;8.856;2024-02-15T09:03:33;32.78;;;14.80;;
31206;SDS011;17834;52.992;8.856;2024-02-15T09:05:59;33.67;;;13.98;;
31206;SDS011;17834;52.992;8.856;2024-02-15T09:08:28;33.40;;;14.15;;
31206;SDS011;17834;52.992;8.856;2024-02-15T09:10:55;29.75;;;13.07;;
31206;SDS011;17834;52.992;8.856;2024-02-15T09:13:23;33.80;;;15.05;;
31206;SDS011;17834;52.992;8.856;2024-02-15T09:15:48;30.48;;;14.93;;
31206;SDS011;17834;52.992;8.856;2024-02-15T09:18:15;38.72;;;14.55;;
31206;SDS011;17834;52.992;8.856;2024-02-15T09:20:42;36.03;;;15.70;;
31206;SDS011;17834;52.992;8.856;2024-02-15T09:23:10;33.33;;;14.48;;
31206;SDS011;17834;52.992;8.856;2024-02-15T09:25:40;32.97;;;14.93;;
31206;SDS011;17834;52.992;8.856;2024-02-15T09:28:10;32.13;;;15.20;;
31206;SDS011;17834;52.992;8.856;2024-02-15T09:30:36;37.78;;;16.00;;
31206;SDS011;17834;52.992;8.856;2024-02-15T09:33:02;31.50;;;13.85;;
31206;SDS011;17834;52.992;8.856;2024-02-15T09:35:31;30.67;;;14.70;;
31206;SDS011;17834;52.992;8.856;2024-02-15T09:37:57;34.33;;;15.35;;
31206;SDS011;17834;52.992;8.856;2024-02-15T09:40:23;31.73;;;14.68;;
31206;SDS011;17834;52.992;8.856;2024-02-15T09:42:54;33.53;;;16.05;;
31206;SDS011;17834;52.992;8.856;2024-02-15T09:45:20;33.42;;;15.45;;
31206;SDS011;17834;52.992;8.856;2024-02-15T09:47:46;31.20;;;14.38;;
31206;SDS011;17834;52.992;8.856;2024-02-15T09:50:16;30.85;;;13.52;;
31206;SDS011;17834;52.992;8.856;2024-02-15T09:52:47;30.45;;;14.38;;
31206;SDS011;17834;52.992;8.856;2024-02-15T09:55:13;28.55;;;13.05;;
31206;SDS011;17834;52.992;8.856;2024-02-15T09:57:41;24.95;;;13.35;;
31206;SDS011;17834;52.992;8.856;2024-02-15T10:00:08;31.35;;;15.10;;
31206;SDS011;17834;52.992;8.856;2024-02-15T10:02:38;27.30;;;12.80;;
31206;SDS011;17834;52.992;8.856;2024-02-15T10:05:05;28.20;;;13.18;;
31206;SDS011;17834;52.992;8.856;2024-02-15T10:07:36;27.83;;;12.90;;
31206;SDS011;17834;52.992;8.856;2024-02-15T10:12:44;26.92;;;12.48;;
31206;SDS011;17834;52.992;8.856;2024-02-15T10:15:26;26.13;;;12.15;;
31206;SDS011;17834;52.992;8.856;2024-02-15T10:17:56;23.58;;;12.18;;
31206;SDS011;17834;52.992;8.856;2024-02-15T10:20:23;23.65;;;11.48;;
31206;SDS011;17834;52.992;8.856;2024-02-15T10:22:53;24.15;;;9.98;;
31206;SDS011;17834;52.992;8.856;2024-02-15T10:25:19;21.20;;;10.65;;
31206;SDS011;17834;52.992;8.856;2024-02-15T10:27:47;23.20;;;10.57;;
31206;SDS011;17834;52.992;8.856;2024-02-15T10:30:19;25.52;;;12.38;;
31206;SDS011;17834;52.992;8.856;2024-02-15T10:32:46;24.70;;;11.75;;
31206;SDS011;17834;52.992;8.856;2024-02-15T10:35:19;21.42;;;9.70;;
31206;SDS011;17834;52.992;8.856;2024-02-15T10:37:46;18.02;;;9.73;;
31206;SDS011;17834;52.992;8.856;2024-02-15T10:40:14;15.02;;;8.85;;
31206;SDS011;17834;52.992;8.856;2024-02-15T10:42:43;16.77;;;8.57;;
31206;SDS011;17834;52.992;8.856;2024-02-15T10:45:11;18.42;;;9.43;;
31206;SDS011;17834;52.992;8.856;2024-02-15T10:47:39;15.27;;;8.93;;
31206;SDS011;17834;52.992;8.856;2024-02-15T10:50:06;16.58;;;9.07;;
31206;SDS011;17834;52.992;8.856;2024-02-15T10:52:32;15.90;;;7.97;;
31206;SDS011;17834;52.992;8.856;2024-02-15T10:55:01;15.23;;;8.27;;
31206;SDS011;17834;52.992;8.856;2024-02-15T10:57:29;17.33;;;8.55;;
31206;SDS011;17834;52.992;8.856;2024-02-15T10:59:58;16.75;;;8.68;;
31206;SDS011;17834;52.992;8.856;2024-02-15T11:02:37;15.93;;;7.95;;
31206;SDS011;17834;52.992;8.856;2024-02-15T11:05:04;15.93;;;8.90;;
31206;SDS011;17834;52.992;8.856;2024-02-15T11:07:34;14.15;;;7.93;;
31206;SDS011;17834;52.992;8.856;2024-02-15T11:10:00;13.35;;;8.50;;
31206;SDS011;17834;52.992;8.856;2024-02-15T11:12:27;13.18;;;8.10;;
31206;SDS011;17834;52.992;8.856;2024-02-15T11:14:54;15.45;;;8.73;;
31206;SDS011;17834;52.992;8.856;2024-02-15T11:20:05;15.40;;;7.88;;
31206;SDS011;17834;52.992;8.856;2024-02-15T11:22:34;12.35;;;7.60;;
31206;SDS011;17834;52.992;8.856;2024-02-15T11:25:02;14.63;;;7.55;;
31206;SDS011;17834;52.992;8.856;2024-02-15T11:27:33;14.32;;;8.32;;
31206;SDS011;17834;52.992;8.856;2024-02-15T11:30:02;12.48;;;7.60;;
31206;SDS011;17834;52.992;8.856;2024-02-15T11:32:52;13.40;;;6.78;;
31206;SDS011;17834;52.992;8.856;2024-02-15T11:35:24;13.65;;;6.60;;
31206;SDS011;17834;52.992;8.856;2024-02-15T11:37:56;17.75;;;7.50;;
31206;SDS011;17834;52.992;8.856;2024-02-15T11:41:00;12.80;;;7.47;;
31206;SDS011;17834;52.992;8.856;2024-02-15T11:46:00;13.32;;;7.82;;
31206;SDS011;17834;52.992;8.856;2024-02-15T11:48:27;13.43;;;7.57;;
31206;SDS011;17834;52.992;8.856;2024-02-15T11:50:53;13.60;;;6.95;;
31206;SDS011;17834;52.992;8.856;2024-02-15T11:53:19;14.38;;;7.55;;
31206;SDS011;17834;52.992;8.856;2024-02-15T11:55:45;9.65;;;5.97;;
31206;SDS011;17834;52.992;8.856;2024-02-15T11:58:12;12.45;;;6.65;;
31206;SDS011;17834;52.992;8.856;2024-02-15T12:00:57;11.07;;;7.03;;
31206;SDS011;17834;52.992;8.856;2024-02-15T12:03:42;13.90;;;7.22;;
31206;SDS011;17834;52.992;8.856;2024-02-15T12:06:27;14.27;;;6.57;;
31206;SDS011;17834;52.992;8.856;2024-02-15T12:09:12;13.35;;;7.70;;
31206;SDS011;17834;52.992;8.856;2024-02-15T12:11:59;13.73;;;7.03;;
31206;SDS011;17834;52.992;8.856;2024-02-15T12:14:44;10.10;;;6.75;;
31206;SDS011;17834;52.992;8.856;2024-02-15T12:17:29;14.27;;;6.75;;
31206;SDS011;17834;52.992;8.856;2024-02-15T12:20:13;10.05;;;6.05;;
31206;SDS011;17834;52.992;8.856;2024-02-15T12:22:40;11.70;;;6.70;;
31206;SDS011;17834;52.992;8.856;2024-02-15T12:25:06;10.73;;;6.28;;
31206;SDS011;17834;52.992;8.856;2024-02-15T12:27:40;9.52;;;5.57;;
31206;SDS011;17834;52.992;8.856;2024-02-15T12:30:06;9.32;;;5.72;;
31206;SDS011;17834;52.992;8.856;2024-02-15T12:32:34;9.52;;;5.30;;
31206;SDS011;17834;52.992;8.856;2024-02-15T12:35:13;8.57;;;5.60;;
31206;SDS011;17834;52.992;8.856;2024-02-15T12:37:44;12.10;;;5.57;;
31206;SDS011;17834;52.992;8.856;2024-02-15T12:40:16;9.48;;;4.90;;
31206;SDS011;17834;52.992;8.856;2024-02-15T12:42:43;10.18;;;5.07;;
31206;SDS011;17834;52.992;8.856;2024-02-15T12:45:15;7.65;;;5.05;;
31206;SDS011;17834;52.992;8.856;2024-02-15T12:47:43;8.77;;;5.38;;
31206;SDS011;17834;52.992;8.856;2024-02-15T12:50:18;9.93;;;5.18;;
31206;SDS011;17834;52.992;8.856;2024-02-15T12:52:48;8.75;;;5.30;;
31206;SDS011;17834;52.992;8.856;2024-02-15T12:55:18;13.73;;;5.13;;
31206;SDS011;17834;52.992;8.856;2024-02-15T12:57:45;7.95;;;4.90;;
31206;SDS011;17834;52.992;8.856;2024-02-15T13:00:13;9.18;;;4.75;;
31206;SDS011;17834;52.992;8.856;2024-02-15T13:02:43;7.70;;;4.80;;
31206;SDS011;17834;52.992;8.856;2024-02-15T13:05:09;7.20;;;4.85;;
31206;SDS011;17834;52.992;8.856;2024-02-15T13:07:37;8.40;;;5.10;;
31206;SDS011;17834;52.992;8.856;2024-02-15T13:10:05;9.88;;;4.70;;
31206;SDS011;17834;52.992;8.856;2024-02-15T13:12:34;5.63;;;4.25;;
31206;SDS011;17834;52.992;8.856;2024-02-15T13:15:01;7.47;;;4.78;;
31206;SDS011;17834;52.992;8.856;2024-02-15T13:17:32;9.20;;;4.68;;
31206;SDS011;17834;52.992;8.856;2024-02-15T13:20:01;8.43;;;5.55;;
31206;SDS011;17834;52.992;8.856;2024-02-15T13:22:35;8.00;;;5.63;;
31206;SDS011;17834;52.992;8.856;2024-02-15T13:25:03;7.55;;;4.97;;
31206;SDS011;17834;52.992;8.856;2024-02-15T13:27:29;8.32;;;5.28;;
31206;SDS011;17834;52.992;8.856;2024-02-15T13:29:56;7.07;;;5.15;;
31206;SDS011;17834;52.992;8.856;2024-02-15T13:32:21;6.72;;;5.00;;
31206;SDS011;17834;52.992;8.856;2024-02-15T13:34:48;9.45;;;4.95;;
31206;SDS011;17834;52.992;8.856;2024-02-15T13:37:20;7.38;;;4.90;;
31206;SDS011;17834;52.992;8.856;2024-02-15T13:39:48;8.70;;;4.38;;
31206;SDS011;17834;52.992;8.856;2024-02-15T13:42:14;7.05;;;4.88;;
31206;SDS011;17834;52.992;8.856;2024-02-15T13:44:40;8.27;;;5.40;;
31206;SDS011;17834;52.992;8.856;2024-02-15T13:47:06;6.43;;;4.18;;
31206;SDS011;17834;52.992;8.856;2024-02-15T13:49:32;6.35;;;4.38;;
31206;SDS011;17834;52.992;8.856;2024-02-15T13:51:59;10.23;;;4.65;;
31206;SDS011;17834;52.992;8.856;2024-02-15T13:54:28;9.45;;;5.10;;
31206;SDS011;17834;52.992;8.856;2024-02-15T13:56:58;11.45;;;5.40;;
31206;SDS011;17834;52.992;8.856;2024-02-15T13:59:25;8.45;;;5.15;;
31206;SDS011;17834;52.992;8.856;2024-02-15T14:01:52;7.38;;;4.78;;
31206;SDS011;17834;52.992;8.856;2024-02-15T14:04:18;5.72;;;4.13;;
31206;SDS011;17834;52.992;8.856;2024-02-15T14:06:44;6.90;;;4.25;;
31206;SDS011;17834;52.992;8.856;2024-02-15T14:09:11;8.15;;;3.92;;
31206;SDS011;17834;52.992;8.856;2024-02-15T14:11:37;6.97;;;4.35;;
31206;SDS011;17834;52.992;8.856;2024-02-15T14:14:03;5.22;;;3.60;;
31206;SDS011;17834;52.992;8.856;2024-02-15T14:16:30;6.03;;;4.30;;
31206;SDS011;17834;52.992;8.856;2024-02-15T14:18:56;9.13;;;4.15;;
31206;SDS011;17834;52.992;8.856;2024-02-15T14:21:22;5.57;;;4.05;;
31206;SDS011;17834;52.992;8.856;2024-02-15T14:23:48;6.55;;;4.03;;
31206;SDS011;17834;52.992;8.856;2024-02-15T14:26:14;7.65;;;4.78;;
31206;SDS011;17834;52.992;8.856;2024-02-15T14:28:41;6.93;;;4.22;;
31206;SDS011;17834;52.992;8.856;2024-02-15T14:31:09;7.13;;;4.43;;
31206;SDS011;17834;52.992;8.856;2024-02-15T14:33:54;9.30;;;4.55;;
31206;SDS011;17834;52.992;8.856;2024-02-15T14:36:20;6.82;;;4.47;;
31206;SDS011;17834;52.992;8.856;2024-02-15T14:38:46;9.20;;;4.80;;
31206;SDS011;17834;52.992;8.856;2024-02-15T14:41:12;10.20;;;4.55;;
31206;SDS011;17834;52.992;8.856;2024-02-15T14:43:39;7.35;;;4.15;;
31206;SDS011;17834;52.992;8.856;2024-02-15T14:46:05;5.70;;;4.30;;